createdAt,value
2018-05-07T00:01:11.692Z,24.60
2018-05-07T00:03:39.064Z,24.50
2018-05-07T00:06:06.531Z,24.50
2018-05-07T00:08:33.971Z,24.50
2018-05-07T00:11:01.431Z,24.40
2018-05-07T00:13:28.906Z,24.40
2018-05-07T00:15:56.360Z,24.40
2018-05-07T00:18:23.807Z,24.30
2018-05-07T00:20:51.275Z,24.40
2018-05-07T00:23:18.724Z,24.30
2018-05-07T00:25:46.192Z,24.20
2018-05-07T00:28:13.660Z,24.30
2018-05-07T00:30:41.120Z,24.20
2018-05-07T00:33:08.597Z,24.20
2018-05-07T00:35:36.824Z,24.20
2018-05-07T00:38:04.272Z,24.10
2018-05-07T00:40:31.731Z,24.10
2018-05-07T00:42:59.195Z,24.00
2018-05-07T00:45:26.646Z,24.00
2018-05-07T00:47:54.099Z,24.00
2018-05-07T00:50:21.565Z,23.90
2018-05-07T00:52:49.016Z,23.90
2018-05-07T00:55:22.182Z,23.90
2018-05-07T00:57:50.396Z,23.80
2018-05-07T01:00:18.628Z,23.80
2018-05-07T01:02:46.080Z,23.80
2018-05-07T01:05:13.540Z,23.80
2018-05-07T01:07:40.994Z,23.80
2018-05-07T01:10:08.453Z,23.80
2018-05-07T01:12:36.675Z,23.90
2018-05-07T01:15:04.132Z,23.90
2018-05-07T01:17:31.604Z,23.80
2018-05-07T01:19:59.051Z,23.70
2018-05-07T01:22:26.513Z,23.70
2018-05-07T01:24:53.964Z,23.70
2018-05-07T01:27:21.421Z,23.70
2018-05-07T01:29:48.877Z,23.60
2018-05-07T01:32:16.331Z,23.60
2018-05-07T01:34:43.800Z,23.60
2018-05-07T01:37:11.257Z,23.50
2018-05-07T01:39:38.719Z,23.40
2018-05-07T01:42:06.177Z,23.40
2018-05-07T01:44:33.627Z,23.40
2018-05-07T01:47:01.089Z,23.20
2018-05-07T01:49:28.543Z,23.30
2018-05-07T01:51:55.991Z,23.30
2018-05-07T01:54:23.448Z,23.30
2018-05-07T01:56:50.906Z,23.20
2018-05-07T01:59:18.372Z,23.20
2018-05-07T02:01:45.828Z,23.10
2018-05-07T02:04:13.288Z,23.00
2018-05-07T02:06:40.748Z,23.00
2018-05-07T02:09:08.202Z,22.90
2018-05-07T02:11:35.660Z,22.90
2018-05-07T02:14:03.116Z,22.80
2018-05-07T02:16:30.572Z,22.80
2018-05-07T02:18:58.799Z,22.70
2018-05-07T02:21:26.262Z,22.70
2018-05-07T02:23:53.729Z,22.70
2018-05-07T02:26:21.184Z,22.50
2018-05-07T02:28:48.646Z,22.40
2018-05-07T02:31:16.240Z,22.40
2018-05-07T02:33:43.593Z,22.40
2018-05-07T02:36:11.050Z,22.40
2018-05-07T02:38:38.509Z,22.30
2018-05-07T02:41:05.973Z,22.40
2018-05-07T02:43:33.528Z,22.30
2018-05-07T02:46:00.989Z,22.30
2018-05-07T02:48:29.219Z,22.20
2018-05-07T02:50:56.693Z,22.10
2018-05-07T02:53:24.177Z,22.10
2018-05-07T02:55:53.176Z,21.90
2018-05-07T02:58:20.632Z,21.90
2018-05-07T03:00:48.884Z,22.00
2018-05-07T03:03:16.356Z,21.90
2018-05-07T03:05:43.812Z,21.90
2018-05-07T03:08:11.274Z,21.90
2018-05-07T03:10:38.751Z,21.90
2018-05-07T03:13:06.201Z,21.80
2018-05-07T03:15:33.648Z,21.70
2018-05-07T03:18:01.116Z,21.70
2018-05-07T03:20:29.376Z,21.60
2018-05-07T03:22:56.935Z,21.60
2018-05-07T03:25:24.392Z,21.60
2018-05-07T03:27:51.866Z,21.60
2018-05-07T03:30:19.324Z,21.50
2018-05-07T03:32:46.780Z,21.40
2018-05-07T03:35:14.223Z,21.50
2018-05-07T03:37:41.684Z,21.50
2018-05-07T03:40:09.146Z,21.50
2018-05-07T03:42:36.604Z,21.40
2018-05-07T03:45:04.847Z,21.40
2018-05-07T03:47:32.328Z,21.30
2018-05-07T03:49:59.788Z,21.40
2018-05-07T03:52:27.244Z,21.30
2018-05-07T03:54:54.708Z,21.40
2018-05-07T03:57:22.168Z,21.30
2018-05-07T03:59:49.628Z,21.20
2018-05-07T04:02:18.618Z,21.30
2018-05-07T04:04:47.604Z,21.20
2018-05-07T04:07:15.096Z,21.20
2018-05-07T04:09:42.520Z,21.20
2018-05-07T04:12:10.847Z,21.20
2018-05-07T04:14:38.330Z,21.20
2018-05-07T04:17:18.408Z,21.20
2018-05-07T04:19:57.656Z,21.10
2018-05-07T04:22:36.977Z,21.20
2018-05-07T04:25:04.433Z,21.10
2018-05-07T04:27:31.897Z,21.10
2018-05-07T04:29:59.361Z,21.00
2018-05-07T04:32:26.852Z,21.10
2018-05-07T04:34:55.085Z,21.10
2018-05-07T04:37:22.543Z,21.00
2018-05-07T04:39:49.996Z,21.00
2018-05-07T04:42:17.461Z,21.00
2018-05-07T04:44:44.913Z,21.00
2018-05-07T04:47:12.371Z,21.00
2018-05-07T04:49:39.835Z,21.10
2018-05-07T04:52:07.283Z,21.20
2018-05-07T04:54:34.740Z,21.10
2018-05-07T04:57:02.201Z,21.00
2018-05-07T04:59:29.659Z,21.00
2018-05-07T05:01:57.111Z,21.20
2018-05-07T05:04:24.573Z,21.10
2018-05-07T05:06:52.044Z,21.00
2018-05-07T05:09:19.496Z,21.00
2018-05-07T05:11:46.945Z,21.10
2018-05-07T05:14:14.412Z,21.00
2018-05-07T05:16:41.883Z,21.00
2018-05-07T05:19:09.353Z,21.00
2018-05-07T05:21:37.591Z,20.90
2018-05-07T05:24:05.044Z,20.90
2018-05-07T05:26:32.508Z,21.00
2018-05-07T05:28:59.967Z,20.90
2018-05-07T05:31:28.212Z,21.00
2018-05-07T05:33:55.677Z,21.00
2018-05-07T05:36:23.155Z,20.90
2018-05-07T05:38:50.612Z,21.00
2018-05-07T05:41:18.089Z,21.10
2018-05-07T05:43:45.557Z,21.00
2018-05-07T05:46:13.039Z,21.00
2018-05-07T05:48:40.497Z,21.00
2018-05-07T05:51:08.721Z,21.00
2018-05-07T05:53:36.179Z,21.00
2018-05-07T05:56:03.635Z,21.00
2018-05-07T05:58:31.092Z,21.10
2018-05-07T06:00:58.576Z,21.00
2018-05-07T06:03:26.827Z,21.10
2018-05-07T06:05:54.340Z,21.10
2018-05-07T06:08:22.839Z,21.20
2018-05-07T06:10:51.245Z,21.20
2018-05-07T06:13:20.759Z,21.30
2018-05-07T06:15:48.274Z,21.30
2018-05-07T06:18:17.325Z,21.40
2018-05-07T06:20:46.448Z,21.40
2018-05-07T06:23:14.668Z,21.50
2018-05-07T06:25:42.236Z,21.50
2018-05-07T06:28:12.236Z,21.50
2018-05-07T06:30:39.772Z,21.60
2018-05-07T06:33:08.001Z,21.90
2018-05-07T06:35:35.447Z,21.90
2018-05-07T06:38:03.683Z,22.10
2018-05-07T06:40:31.143Z,22.10
2018-05-07T06:42:58.615Z,22.30
2018-05-07T06:45:26.858Z,22.60
2018-05-07T06:47:54.264Z,22.60
2018-05-07T06:50:21.722Z,22.70
2018-05-07T06:52:49.218Z,22.80
2018-05-07T06:55:16.663Z,22.90
2018-05-07T06:57:44.124Z,23.00
2018-05-07T07:00:11.565Z,23.10
2018-05-07T07:02:39.186Z,23.30
2018-05-07T07:05:06.481Z,23.40
2018-05-07T07:07:33.940Z,23.60
2018-05-07T07:10:01.388Z,23.70
2018-05-07T07:12:28.848Z,23.80
2018-05-07T07:14:56.317Z,23.90
2018-05-07T07:17:23.754Z,24.00
2018-05-07T07:19:51.214Z,24.20
2018-05-07T07:22:18.721Z,24.40
2018-05-07T07:24:46.124Z,24.60
2018-05-07T07:27:13.580Z,24.70
2018-05-07T07:29:41.036Z,24.80
2018-05-07T07:32:08.492Z,25.00
2018-05-07T07:34:35.957Z,25.20
2018-05-07T07:37:03.415Z,25.40
2018-05-07T07:39:30.959Z,25.50
2018-05-07T07:41:58.340Z,25.70
2018-05-07T07:44:25.797Z,25.90
2018-05-07T07:46:53.253Z,26.00
2018-05-07T07:49:20.699Z,26.20
2018-05-07T07:51:48.156Z,26.40
2018-05-07T07:54:15.610Z,26.60
2018-05-07T07:56:43.080Z,26.80
2018-05-07T07:59:10.577Z,26.90
2018-05-07T08:01:38.021Z,27.10
2018-05-07T08:04:06.989Z,27.50
2018-05-07T08:06:34.443Z,27.50
2018-05-07T08:09:01.897Z,27.70
2018-05-07T08:11:29.336Z,27.90
2018-05-07T08:13:56.796Z,28.10
2018-05-07T08:16:24.261Z,28.20
2018-05-07T08:18:51.754Z,28.50
2018-05-07T08:21:19.236Z,28.70
2018-05-07T08:23:47.455Z,29.00
2018-05-07T08:26:14.924Z,29.00
2018-05-07T08:28:42.401Z,29.10
2018-05-07T08:31:09.859Z,29.30
2018-05-07T08:33:37.296Z,29.50
2018-05-07T08:36:04.752Z,29.60
2018-05-07T08:38:32.231Z,29.80
2018-05-07T08:40:59.693Z,30.00
2018-05-07T08:43:27.147Z,30.30
2018-05-07T08:45:54.608Z,30.40
2018-05-07T08:48:22.078Z,30.60
2018-05-07T08:50:49.612Z,30.80
2018-05-07T08:53:17.823Z,31.20
2018-05-07T08:55:45.376Z,31.10
2018-05-07T08:58:12.713Z,31.40
2018-05-07T09:00:40.952Z,31.80
2018-05-07T09:03:08.412Z,31.80
2018-05-07T09:05:35.868Z,31.90
2018-05-07T09:08:03.353Z,32.20
2018-05-07T09:10:31.553Z,32.60
2018-05-07T09:12:59.783Z,32.70
2018-05-07T09:15:27.236Z,32.70
2018-05-07T09:17:54.692Z,32.90
2018-05-07T09:20:22.142Z,33.10
2018-05-07T09:22:49.609Z,33.20
2018-05-07T09:25:17.061Z,33.40
2018-05-07T09:27:44.531Z,33.60
2018-05-07T09:30:11.968Z,33.90
2018-05-07T09:32:39.434Z,34.10
2018-05-07T09:35:06.884Z,34.30
2018-05-07T09:37:34.352Z,34.40
2018-05-07T09:40:01.832Z,34.70
2018-05-07T09:42:29.320Z,34.90
2018-05-07T09:44:57.532Z,35.30
2018-05-07T09:47:24.993Z,35.30
2018-05-07T09:49:52.456Z,35.50
2018-05-07T09:52:19.924Z,35.70
2018-05-07T09:54:47.379Z,35.80
2018-05-07T09:57:14.852Z,36.00
2018-05-07T09:59:43.088Z,36.40
2018-05-07T10:02:11.326Z,36.60
2018-05-07T10:04:39.584Z,36.70
2018-05-07T10:07:07.015Z,36.70
2018-05-07T10:09:34.476Z,36.90
2018-05-07T10:12:01.920Z,37.10
2018-05-07T10:14:29.376Z,37.20
2018-05-07T10:16:56.920Z,37.40
2018-05-07T10:19:24.312Z,37.50
2018-05-07T10:21:51.813Z,37.70
2018-05-07T10:24:20.049Z,38.10
2018-05-07T10:26:47.491Z,38.00
2018-05-07T10:29:14.952Z,38.30
2018-05-07T10:31:42.409Z,38.50
2018-05-07T10:34:09.873Z,38.50
2018-05-07T10:36:37.331Z,38.70
2018-05-07T10:39:06.318Z,38.90
2018-05-07T10:41:33.764Z,39.10
2018-05-07T10:44:01.241Z,39.30
2018-05-07T10:46:28.690Z,39.50
2018-05-07T10:48:56.134Z,39.60
2018-05-07T10:51:24.373Z,42.70
2018-05-07T10:53:52.587Z,45.60
2018-05-07T10:56:20.057Z,45.50
2018-05-07T10:58:48.276Z,49.60
2018-05-07T11:01:16.504Z,50.90
2018-05-07T11:03:43.954Z,50.80
2018-05-07T11:06:12.187Z,51.40
2018-05-07T11:08:40.406Z,50.90
2018-05-07T11:11:07.869Z,50.90
2018-05-07T11:13:35.387Z,50.40
2018-05-07T11:16:02.771Z,50.30
2018-05-07T11:18:30.236Z,50.70
2018-05-07T11:20:57.711Z,50.90
2018-05-07T11:23:25.162Z,51.40
2018-05-07T11:25:52.624Z,51.40
2018-05-07T11:28:20.091Z,51.50
2018-05-07T11:30:47.536Z,51.60
2018-05-07T11:33:14.987Z,51.80
2018-05-07T11:35:43.316Z,52.40
2018-05-07T11:38:11.534Z,52.70
2018-05-07T11:40:38.988Z,52.60
2018-05-07T11:43:07.224Z,53.40
2018-05-07T11:45:34.687Z,53.40
2018-05-07T11:48:02.164Z,53.90
2018-05-07T11:50:29.617Z,54.40
2018-05-07T11:52:57.076Z,54.70
2018-05-07T11:55:24.536Z,55.40
2018-05-07T11:57:52.004Z,55.90
2018-05-07T12:00:19.482Z,56.40
2018-05-07T12:02:46.976Z,56.50
2018-05-07T12:05:14.380Z,56.80
2018-05-07T12:07:41.853Z,57.30
2018-05-07T12:10:09.295Z,57.50
2018-05-07T12:12:36.781Z,57.50
2018-05-07T12:15:04.229Z,58.00
2018-05-07T12:17:32.461Z,58.70
2018-05-07T12:19:59.928Z,58.70
2018-05-07T12:22:27.377Z,59.00
2018-05-07T12:24:54.849Z,59.30
2018-05-07T12:27:22.299Z,59.50
2018-05-07T12:29:49.775Z,59.80
2018-05-07T12:32:17.213Z,59.80
2018-05-07T12:34:44.670Z,60.20
2018-05-07T12:37:12.123Z,60.50
2018-05-07T12:39:39.589Z,61.00
2018-05-07T12:42:07.805Z,61.20
2018-05-07T12:44:35.264Z,61.20
2018-05-07T12:47:02.730Z,61.60
2018-05-07T12:49:30.181Z,61.60
2018-05-07T12:51:57.637Z,61.70
2018-05-07T12:54:25.097Z,61.90
2018-05-07T12:56:52.549Z,62.10
2018-05-07T12:59:20.017Z,61.90
2018-05-07T13:01:48.233Z,62.20
2018-05-07T13:04:16.460Z,61.70
2018-05-07T13:09:17.722Z,62.00
2018-05-07T13:11:45.177Z,62.10
2018-05-07T13:14:12.638Z,61.70
2018-05-07T13:16:40.856Z,62.10
2018-05-07T13:19:09.096Z,62.10
2018-05-07T13:21:36.570Z,62.00
2018-05-07T13:24:04.006Z,61.70
2018-05-07T13:26:31.465Z,62.00
2018-05-07T13:28:58.900Z,61.70
2018-05-07T13:31:26.414Z,61.70
2018-05-07T13:33:54.629Z,61.50
2018-05-07T13:36:22.095Z,61.50
2018-05-07T13:38:50.314Z,61.00
2018-05-07T13:41:19.309Z,60.80
2018-05-07T13:43:47.522Z,60.90
2018-05-07T13:46:14.981Z,60.80
2018-05-07T13:48:42.439Z,60.60
2018-05-07T13:51:09.996Z,60.60
2018-05-07T13:53:37.377Z,60.20
2018-05-07T13:56:04.855Z,60.10
2018-05-07T13:58:32.323Z,59.50
2018-05-07T14:00:59.792Z,59.50
2018-05-07T14:03:28.015Z,59.20
2018-05-07T14:05:55.468Z,59.20
2018-05-07T14:08:22.933Z,58.60
2018-05-07T14:10:50.385Z,56.90
2018-05-07T14:13:17.841Z,53.90
2018-05-07T14:15:45.288Z,51.80
2018-05-07T14:18:12.770Z,50.50
2018-05-07T14:20:40.216Z,49.50
2018-05-07T14:23:07.696Z,48.70
2018-05-07T14:25:35.144Z,48.10
2018-05-07T14:28:02.599Z,47.70
2018-05-07T14:30:30.056Z,47.40
2018-05-07T14:32:57.524Z,47.30
2018-05-07T14:35:25.728Z,49.40
2018-05-07T14:37:53.964Z,50.60
2018-05-07T14:40:21.422Z,50.50
2018-05-07T14:42:48.879Z,51.20
2018-05-07T14:45:16.337Z,50.80
2018-05-07T14:47:43.797Z,50.10
2018-05-07T14:50:11.269Z,48.60
2018-05-07T14:52:38.717Z,47.10
2018-05-07T14:55:06.188Z,45.90
2018-05-07T14:57:33.668Z,45.00
2018-05-07T15:00:01.904Z,43.70
2018-05-07T15:02:29.358Z,43.60
2018-05-07T15:04:56.820Z,43.10
2018-05-07T15:07:24.268Z,42.70
2018-05-07T15:09:51.736Z,42.30
2018-05-07T15:12:19.185Z,42.00
2018-05-07T15:14:46.648Z,41.70
2018-05-07T15:17:14.096Z,41.30
2018-05-07T15:19:41.556Z,41.00
2018-05-07T15:22:09.012Z,40.60
2018-05-07T15:24:46.286Z,40.30
2018-05-07T15:27:13.742Z,40.00
2018-05-07T15:29:41.215Z,39.60
2018-05-07T15:32:08.701Z,39.30
2018-05-07T15:34:36.932Z,38.80
2018-05-07T15:37:04.400Z,38.70
2018-05-07T15:39:31.864Z,38.50
2018-05-07T15:41:59.321Z,38.30
2018-05-07T15:44:26.783Z,38.10
2018-05-07T15:46:54.288Z,37.90
2018-05-07T15:49:22.537Z,37.60
2018-05-07T15:51:49.988Z,37.60
2018-05-07T15:54:17.449Z,37.40
2018-05-07T15:56:44.912Z,37.30
2018-05-07T15:59:12.369Z,37.10
2018-05-07T16:01:39.849Z,37.00
2018-05-07T16:04:08.121Z,36.60
2018-05-07T16:06:36.335Z,36.50
2018-05-07T16:09:03.814Z,36.50
2018-05-07T16:11:31.270Z,36.30
2018-05-07T16:13:58.725Z,36.30
2018-05-07T16:16:26.183Z,36.10
2018-05-07T16:18:53.728Z,36.00
2018-05-07T16:21:21.166Z,35.90
2018-05-07T16:23:48.657Z,35.80
2018-05-07T16:26:16.123Z,35.70
2018-05-07T16:28:43.595Z,35.50
2018-05-07T16:31:11.112Z,35.50
2018-05-07T16:33:38.536Z,35.40
2018-05-07T16:36:06.776Z,35.10
2018-05-07T16:38:34.227Z,35.20
2018-05-07T16:41:02.440Z,35.00
2018-05-07T16:43:29.942Z,35.00
2018-05-07T16:45:57.410Z,34.90
2018-05-07T16:48:24.868Z,34.90
2018-05-07T16:50:53.092Z,34.70
2018-05-07T16:53:21.318Z,34.60
2018-05-07T16:55:48.771Z,34.60
2018-05-07T16:58:16.232Z,34.60
2018-05-07T17:00:43.691Z,34.50
2018-05-07T17:03:11.173Z,34.40
2018-05-07T17:05:38.684Z,34.30
2018-05-07T17:08:06.175Z,34.20
2018-05-07T17:10:33.624Z,34.20
2018-05-07T17:13:01.082Z,34.10
2018-05-07T17:15:28.548Z,34.00
2018-05-07T17:17:56.790Z,33.90
2018-05-07T17:20:24.229Z,33.90
2018-05-07T17:22:51.700Z,33.90
2018-05-07T17:25:19.921Z,33.80
2018-05-07T17:27:48.159Z,33.60
2018-05-07T17:30:15.604Z,33.60
2018-05-07T17:32:43.084Z,33.60
2018-05-07T17:35:10.579Z,33.50
2018-05-07T17:37:38.027Z,33.40
2018-05-07T17:40:06.284Z,33.30
2018-05-07T17:42:33.766Z,33.30
2018-05-07T17:45:16.683Z,33.20
2018-05-07T17:47:55.841Z,33.10
2018-05-07T17:50:24.141Z,33.00
2018-05-07T17:52:51.628Z,32.90
2018-05-07T17:55:19.084Z,32.90
2018-05-07T17:57:46.545Z,32.80
2018-05-07T18:00:14.014Z,32.80
2018-05-07T18:02:41.455Z,32.70
2018-05-07T18:05:08.917Z,32.60
2018-05-07T18:07:37.139Z,32.50
2018-05-07T18:10:04.669Z,32.50
2018-05-07T18:12:32.117Z,32.40
2018-05-07T18:14:59.628Z,32.30
2018-05-07T18:17:27.841Z,32.20
2018-05-07T18:19:55.307Z,32.20
2018-05-07T18:22:22.775Z,32.10
2018-05-07T18:24:50.261Z,32.00
2018-05-07T18:27:18.488Z,31.90
2018-05-07T18:29:46.086Z,31.90
2018-05-07T18:32:13.544Z,31.80
2018-05-07T18:34:41.013Z,31.80
2018-05-07T18:37:08.536Z,31.70
2018-05-07T18:39:36.000Z,31.60
2018-05-07T18:42:03.460Z,31.60
2018-05-07T18:44:30.944Z,31.50
2018-05-07T18:46:58.384Z,31.40
2018-05-07T18:49:25.847Z,31.30
2018-05-07T18:51:53.316Z,31.30
2018-05-07T18:54:21.600Z,31.10
2018-05-07T18:56:49.836Z,31.00
2018-05-07T18:59:17.303Z,31.00
2018-05-07T19:01:44.785Z,31.00
2018-05-07T19:04:12.390Z,30.90
2018-05-07T19:06:39.832Z,30.80
2018-05-07T19:09:07.286Z,30.70
2018-05-07T19:11:34.747Z,30.70
2018-05-07T19:14:02.205Z,30.60
2018-05-07T19:16:29.657Z,30.50
2018-05-07T19:18:57.117Z,30.50
2018-05-07T19:21:25.348Z,30.30
2018-05-07T19:23:52.822Z,30.30
2018-05-07T19:26:21.086Z,30.20
2018-05-07T19:28:48.558Z,30.20
2018-05-07T19:31:16.792Z,30.00
2018-05-07T19:33:44.260Z,30.00
2018-05-07T19:36:11.717Z,30.00
2018-05-07T19:38:39.176Z,29.90
2018-05-07T19:41:06.663Z,29.90
2018-05-07T19:43:35.615Z,29.70
2018-05-07T19:46:03.856Z,29.70
2018-05-07T19:48:31.340Z,29.60
2018-05-07T19:50:58.768Z,29.60
2018-05-07T19:53:26.243Z,29.60
2018-05-07T19:55:53.713Z,29.50
2018-05-07T19:58:21.173Z,29.40
2018-05-07T20:00:48.633Z,29.40
2018-05-07T20:03:16.092Z,29.30
2018-05-07T20:05:43.607Z,29.30
2018-05-07T20:08:11.073Z,29.30
2018-05-07T20:10:38.523Z,29.20
2018-05-07T20:13:06.748Z,29.10
2018-05-07T20:15:34.208Z,29.10
2018-05-07T20:18:01.681Z,29.10
2018-05-07T20:20:29.153Z,29.00
2018-05-07T20:22:56.619Z,28.90
2018-05-07T20:25:24.937Z,28.80
2018-05-07T20:27:52.397Z,28.80
2018-05-07T20:30:19.914Z,28.80
2018-05-07T20:32:48.165Z,28.60
2018-05-07T20:35:15.612Z,28.60
2018-05-07T20:37:43.872Z,28.60
2018-05-07T20:40:12.093Z,28.50
2018-05-07T20:42:39.549Z,28.50
2018-05-07T20:45:07.012Z,28.50
2018-05-07T20:47:35.258Z,28.30
2018-05-07T20:50:02.744Z,28.30
2018-05-07T20:52:30.969Z,28.20
2018-05-07T20:54:58.440Z,28.20
2018-05-07T20:57:26.406Z,28.20
2018-05-07T20:59:53.869Z,28.10
2018-05-07T21:02:21.342Z,28.10
2018-05-07T21:04:48.794Z,28.10
2018-05-07T21:07:16.273Z,28.00
2018-05-07T21:09:43.732Z,28.00
2018-05-07T21:12:11.957Z,27.90
2018-05-07T21:14:39.414Z,27.90
2018-05-07T21:17:06.860Z,27.80
2018-05-07T21:19:34.397Z,27.70
2018-05-07T21:22:01.792Z,27.70
2018-05-07T21:24:29.406Z,27.70
2018-05-07T21:26:57.632Z,27.60
2018-05-07T21:29:25.104Z,27.60
2018-05-07T21:31:52.592Z,27.50
2018-05-07T21:34:20.816Z,27.50
2018-05-07T21:36:48.293Z,27.50
2018-05-07T21:39:15.747Z,27.50
2018-05-07T21:41:43.224Z,27.40
2018-05-07T21:44:10.674Z,27.40
2018-05-07T21:46:38.136Z,27.30
2018-05-07T21:49:05.608Z,27.30
2018-05-07T21:51:33.840Z,27.20
2018-05-07T21:54:01.301Z,27.20
2018-05-07T21:56:28.755Z,27.20
2018-05-07T21:58:56.980Z,27.10
2018-05-07T22:01:25.217Z,27.10
2018-05-07T22:03:52.676Z,27.00
2018-05-07T22:06:20.145Z,27.00
2018-05-07T22:08:49.120Z,27.00
2018-05-07T22:11:16.576Z,26.90
2018-05-07T22:13:45.843Z,26.90
2018-05-07T22:16:13.305Z,26.90
2018-05-07T22:18:40.761Z,26.80
2018-05-07T22:21:08.231Z,26.80
2018-05-07T22:23:35.705Z,26.80
2018-05-07T22:26:03.274Z,26.80
2018-05-07T22:28:31.428Z,26.80
2018-05-07T22:30:58.894Z,26.70
2018-05-07T22:33:26.363Z,26.70
2018-05-07T22:35:53.863Z,26.70
2018-05-07T22:38:22.063Z,26.70
2018-05-07T22:40:49.537Z,26.60
2018-05-07T22:43:17.002Z,26.70
2018-05-07T22:45:44.488Z,26.50
2018-05-07T22:48:11.943Z,26.50
2018-05-07T22:50:39.429Z,26.60
2018-05-07T22:53:07.655Z,26.50
2018-05-07T22:55:35.120Z,26.50
2018-05-07T22:58:02.602Z,26.50
2018-05-07T23:00:30.071Z,26.40
2018-05-07T23:02:58.308Z,26.30
2018-05-07T23:05:25.753Z,26.30
2018-05-07T23:07:53.213Z,26.30
2018-05-07T23:10:21.431Z,26.30
2018-05-07T23:12:49.656Z,26.30
2018-05-07T23:15:17.116Z,26.30
2018-05-07T23:17:44.571Z,26.30
2018-05-07T23:20:12.030Z,26.20
2018-05-07T23:22:39.491Z,26.20
2018-05-07T23:25:06.947Z,26.10
2018-05-07T23:27:34.401Z,26.00
2018-05-07T23:30:01.860Z,25.90
2018-05-07T23:32:30.087Z,26.00
2018-05-07T23:34:58.312Z,26.00
2018-05-07T23:37:25.767Z,25.90
2018-05-07T23:39:53.220Z,25.90
2018-05-07T23:42:20.683Z,25.90
2018-05-07T23:44:48.140Z,25.80
2018-05-07T23:47:15.624Z,25.80
2018-05-07T23:49:43.079Z,25.80
2018-05-07T23:52:10.536Z,25.70
2018-05-07T23:54:38.000Z,25.80
2018-05-07T23:57:05.451Z,25.70
2018-05-07T23:59:32.915Z,25.70
